createdAt,value
2023-02-16T00:01:22.261Z,102119.88
2023-02-16T00:03:51.397Z,102118.94
2023-02-16T00:06:19.578Z,102121.44
2023-02-16T00:08:49.452Z,102129.69
2023-02-16T00:11:39.637Z,102130.00
2023-02-16T00:14:11.102Z,102131.78
2023-02-16T00:16:39.580Z,102139.81
2023-02-16T00:19:18.045Z,102135.31
2023-02-16T00:21:45.990Z,102133.47
2023-02-16T00:24:13.931Z,102137.59
2023-02-16T00:26:44.221Z,102140.28
2023-02-16T00:29:16.674Z,102122.28
2023-02-16T00:31:44.736Z,102129.28
2023-02-16T00:34:31.722Z,102121.50
2023-02-16T00:37:02.752Z,102126.94
2023-02-16T00:39:31.322Z,102133.13
2023-02-16T00:42:05.440Z,102135.72
2023-02-16T00:44:37.977Z,102127.25
2023-02-16T00:47:18.845Z,102129.25
2023-02-16T00:49:46.859Z,102129.25
2023-02-16T00:52:32.385Z,102126.53
2023-02-16T00:55:01.293Z,102124.16
2023-02-16T00:57:35.236Z,102130.34
2023-02-16T01:00:09.434Z,102127.91
2023-02-16T01:02:37.384Z,102128.81
2023-02-16T01:05:05.756Z,102122.00
2023-02-16T01:07:51.330Z,102112.22
2023-02-16T01:10:38.118Z,102124.56
2023-02-16T01:13:07.447Z,102121.16
2023-02-16T01:15:36.825Z,102127.44
2023-02-16T01:18:05.031Z,102122.00
2023-02-16T01:20:33.077Z,102121.16
2023-02-16T01:23:01.042Z,102116.47
2023-02-16T01:25:29.323Z,102111.41
2023-02-16T01:27:57.241Z,102119.31
2023-02-16T01:30:27.601Z,102116.13
2023-02-16T01:32:55.963Z,102119.69
2023-02-16T01:35:28.140Z,102113.13
2023-02-16T01:37:56.039Z,102108.84
2023-02-16T01:40:36.925Z,102102.97
2023-02-16T01:43:12.255Z,102111.63
2023-02-16T01:45:44.317Z,102114.34
2023-02-16T01:48:22.053Z,102112.41
2023-02-16T01:50:55.578Z,102106.44
2023-02-16T01:53:30.444Z,102106.53
2023-02-16T01:56:04.546Z,102104.13
2023-02-16T01:58:37.908Z,102109.38
2023-02-16T02:01:53.690Z,102103.16
2023-02-16T02:04:47.090Z,102110.34
2023-02-16T02:07:23.090Z,102102.31
2023-02-16T02:09:58.227Z,102101.91
2023-02-16T02:12:33.858Z,102100.41
2023-02-16T02:15:02.392Z,102102.56
2023-02-16T02:17:32.490Z,102098.13
2023-02-16T02:20:09.269Z,102087.47
2023-02-16T02:23:31.060Z,102093.97
2023-02-16T02:26:32.616Z,102099.06
2023-02-16T02:29:14.356Z,102089.31
2023-02-16T02:31:53.047Z,102086.16
2023-02-16T02:34:30.019Z,102080.97
2023-02-16T02:37:09.429Z,102092.25
2023-02-16T02:39:47.961Z,102081.78
2023-02-16T02:42:24.549Z,102079.22
2023-02-16T02:45:00.153Z,102073.81
2023-02-16T02:47:39.615Z,102075.72
2023-02-16T02:50:35.544Z,102070.06
2023-02-16T02:53:09.515Z,102080.19
2023-02-16T02:56:00.836Z,102062.25
2023-02-16T02:58:52.588Z,102067.88
2023-02-16T03:01:23.543Z,102070.34
2023-02-16T03:03:57.112Z,102066.19
2023-02-16T03:06:28.567Z,102070.00
2023-02-16T03:09:01.427Z,102070.69
2023-02-16T03:11:48.364Z,102069.06
2023-02-16T03:14:19.579Z,102072.84
2023-02-16T03:17:11.280Z,102065.63
2023-02-16T03:19:59.700Z,102063.97
2023-02-16T03:22:45.407Z,102060.50
2023-02-16T03:25:31.290Z,102056.03
2023-02-16T03:28:18.906Z,102077.34
2023-02-16T03:30:48.845Z,102060.59
2023-02-16T03:33:18.726Z,102067.66
2023-02-16T03:35:47.279Z,102071.22
2023-02-16T03:38:15.218Z,102073.13
2023-02-16T03:40:45.325Z,102061.75
2023-02-16T03:43:13.294Z,102065.81
2023-02-16T03:45:44.283Z,102066.13
2023-02-16T03:48:12.824Z,102068.78
2023-02-16T03:50:42.235Z,102065.91
2023-02-16T03:53:10.185Z,102058.66
2023-02-16T03:55:40.791Z,102057.78
2023-02-16T03:58:10.505Z,102067.31
2023-02-16T04:00:39.119Z,102055.06
2023-02-16T04:03:08.829Z,102061.97
2023-02-16T04:05:36.981Z,102058.75
2023-02-16T04:08:06.885Z,102067.97
2023-02-16T04:10:34.760Z,102068.97
2023-02-16T04:13:02.135Z,102064.41
2023-02-16T04:15:32.021Z,102065.47
2023-02-16T04:17:59.934Z,102066.47
2023-02-16T04:20:29.906Z,102068.84
2023-02-16T04:22:58.086Z,102064.03
2023-02-16T04:25:27.487Z,102065.72
2023-02-16T04:27:55.953Z,102063.94
2023-02-16T04:30:26.806Z,102062.16
2023-02-16T04:32:54.750Z,102060.28
2023-02-16T04:35:23.254Z,102059.75
2023-02-16T04:37:51.231Z,102063.13
2023-02-16T04:40:19.671Z,102062.06
2023-02-16T04:42:48.879Z,102071.84
2023-02-16T04:45:16.773Z,102062.13
2023-02-16T04:47:44.770Z,102066.88
2023-02-16T04:50:13.529Z,102053.44
2023-02-16T04:52:41.471Z,102052.47
2023-02-16T04:55:10.794Z,102054.16
2023-02-16T04:57:39.050Z,102054.44
2023-02-16T05:00:11.692Z,102052.56
2023-02-16T05:02:39.667Z,102052.75
2023-02-16T05:05:08.643Z,102058.06
2023-02-16T05:07:37.201Z,102051.13
2023-02-16T05:10:06.048Z,102059.94
2023-02-16T05:12:51.315Z,102054.13
2023-02-16T05:15:20.590Z,102054.41
2023-02-16T05:17:48.481Z,102060.66
2023-02-16T05:20:16.373Z,102066.03
2023-02-16T05:22:45.657Z,102069.47
2023-02-16T05:25:13.865Z,102065.31
2023-02-16T05:27:41.759Z,102065.00
2023-02-16T05:30:10.582Z,102065.91
2023-02-16T05:32:39.829Z,102066.00
2023-02-16T05:35:07.869Z,102067.59
2023-02-16T05:37:35.805Z,102060.38
2023-02-16T05:40:03.782Z,102048.78
2023-02-16T05:42:31.754Z,102049.63
2023-02-16T05:44:59.651Z,102056.47
2023-02-16T05:47:27.509Z,102049.31
2023-02-16T05:49:56.765Z,102056.22
2023-02-16T05:52:24.792Z,102056.88
2023-02-16T05:54:52.678Z,102063.59
2023-02-16T05:57:20.539Z,102067.16
2023-02-16T05:59:48.390Z,102077.81
2023-02-16T06:02:16.547Z,102084.50
2023-02-16T06:04:44.413Z,102086.41
2023-02-16T06:07:14.895Z,102078.63
2023-02-16T06:09:42.955Z,102084.53
2023-02-16T06:12:10.877Z,102080.16
2023-02-16T06:14:38.746Z,102074.69
2023-02-16T06:17:06.622Z,102074.78
2023-02-16T06:19:34.505Z,102069.47
2023-02-16T06:22:02.498Z,102078.63
2023-02-16T06:24:31.855Z,102074.72
2023-02-16T06:27:00.143Z,102077.97
2023-02-16T06:29:28.062Z,102074.16
2023-02-16T06:31:56.191Z,102074.81
2023-02-16T06:34:24.194Z,102074.38
2023-02-16T06:36:52.040Z,102080.97
2023-02-16T06:39:20.049Z,102082.75
2023-02-16T06:41:49.370Z,102079.72
2023-02-16T06:44:18.343Z,102080.63
2023-02-16T06:46:48.582Z,102083.47
2023-02-16T06:49:19.068Z,102083.78
2023-02-16T06:51:47.467Z,102087.72
2023-02-16T06:54:16.268Z,102088.31
2023-02-16T06:56:44.154Z,102087.41
2023-02-16T06:59:13.730Z,102079.66
2023-02-16T07:01:44.080Z,102083.31
2023-02-16T07:04:12.800Z,102086.13
2023-02-16T07:06:41.249Z,102091.94
2023-02-16T07:09:10.642Z,102085.72
2023-02-16T07:11:39.449Z,102089.34
2023-02-16T07:14:07.339Z,102083.09
2023-02-16T07:16:36.708Z,102077.25
2023-02-16T07:19:05.597Z,102073.38
2023-02-16T07:21:33.532Z,102069.63
2023-02-16T07:24:01.421Z,102073.28
2023-02-16T07:26:29.338Z,102075.28
2023-02-16T07:28:57.200Z,102074.50
2023-02-16T07:31:26.593Z,102074.22
2023-02-16T07:33:55.853Z,102070.91
2023-02-16T07:36:23.901Z,102070.34
2023-02-16T07:38:51.769Z,102067.97
2023-02-16T07:41:19.659Z,102063.22
2023-02-16T07:43:48.206Z,102057.00
2023-02-16T07:46:16.078Z,102061.91
2023-02-16T07:48:43.934Z,102065.28
2023-02-16T07:51:13.189Z,102069.81
2023-02-16T07:53:41.076Z,102068.41
2023-02-16T07:56:08.867Z,102061.81
2023-02-16T07:58:36.822Z,102072.44
2023-02-16T08:01:10.003Z,102068.66
2023-02-16T08:03:38.026Z,102080.56
2023-02-16T08:06:07.575Z,102082.75
2023-02-16T08:08:37.369Z,102073.25
2023-02-16T08:11:10.441Z,102084.84
2023-02-16T08:13:38.183Z,102070.84
2023-02-16T08:16:09.536Z,102073.69
2023-02-16T08:18:37.474Z,102078.66
2023-02-16T08:21:13.894Z,102083.94
2023-02-16T08:23:47.530Z,102086.94
2023-02-16T08:26:18.258Z,102086.63
2023-02-16T08:28:47.342Z,102086.59
2023-02-16T08:31:17.294Z,102087.84
2023-02-16T08:33:45.788Z,102088.06
2023-02-16T08:36:21.034Z,102081.13
2023-02-16T08:38:51.172Z,102076.16
2023-02-16T08:41:19.516Z,102078.34
2023-02-16T08:43:47.887Z,102080.16
2023-02-16T08:46:16.954Z,102077.94
2023-02-16T08:48:46.129Z,102065.81
2023-02-16T08:51:15.540Z,102061.22
2023-02-16T08:53:44.071Z,102062.91
2023-02-16T08:56:14.377Z,102059.88
2023-02-16T08:58:44.630Z,102060.47
2023-02-16T09:01:13.079Z,102049.13
2023-02-16T09:03:42.911Z,102056.38
2023-02-16T09:06:13.256Z,102044.53
2023-02-16T09:08:41.990Z,102040.59
2023-02-16T09:11:14.745Z,102030.22
2023-02-16T09:13:43.713Z,102031.69
2023-02-16T09:16:14.164Z,102020.88
2023-02-16T09:18:42.796Z,102030.88
2023-02-16T09:21:14.985Z,102026.28
2023-02-16T09:23:47.426Z,102024.97
2023-02-16T09:26:17.552Z,102034.25
2023-02-16T09:28:47.216Z,102024.41
2023-02-16T09:31:20.091Z,102019.53
2023-02-16T09:33:48.133Z,102019.66
2023-02-16T09:36:16.318Z,102024.66
2023-02-16T09:38:44.258Z,102024.47
2023-02-16T09:41:27.017Z,102020.88
2023-02-16T09:43:59.257Z,102029.50
2023-02-16T09:46:29.688Z,102033.88
2023-02-16T09:48:57.928Z,102026.50
2023-02-16T09:51:34.751Z,102010.03
2023-02-16T09:54:15.343Z,102015.25
2023-02-16T09:56:50.325Z,102007.59
2023-02-16T09:59:33.164Z,102001.50
2023-02-16T10:02:16.295Z,102002.97
2023-02-16T10:04:48.837Z,102002.78
2023-02-16T10:07:29.658Z,102007.69
2023-02-16T10:09:58.490Z,101998.28
2023-02-16T10:12:34.550Z,101998.28
2023-02-16T10:15:08.196Z,101993.31
2023-02-16T10:17:46.952Z,101989.78
2023-02-16T10:20:17.746Z,101991.88
2023-02-16T10:22:51.413Z,102010.44
2023-02-16T10:25:23.496Z,102005.91
2023-02-16T10:28:12.493Z,102005.16
2023-02-16T10:30:44.073Z,102008.69
2023-02-16T10:33:17.147Z,102008.81
2023-02-16T10:35:48.891Z,101996.31
2023-02-16T10:38:27.688Z,101999.53
2023-02-16T10:40:59.943Z,101992.25
2023-02-16T10:43:41.335Z,101987.88
2023-02-16T10:46:12.817Z,101973.09
2023-02-16T10:48:40.896Z,101965.06
2023-02-16T10:51:12.721Z,101972.22
2023-02-16T10:53:44.955Z,101966.25
2023-02-16T10:56:40.400Z,101961.47
2023-02-16T10:59:17.053Z,101974.31
2023-02-16T11:01:46.897Z,101967.19
2023-02-16T11:04:37.682Z,101963.16
2023-02-16T11:07:08.510Z,101964.16
2023-02-16T11:09:37.295Z,101961.25
2023-02-16T11:12:16.750Z,101959.88
2023-02-16T11:14:51.636Z,101955.88
2023-02-16T11:17:22.283Z,101955.19
2023-02-16T11:19:54.099Z,101962.41
2023-02-16T11:22:34.520Z,101954.84
2023-02-16T11:25:22.048Z,101964.50
2023-02-16T11:27:55.498Z,101955.69
2023-02-16T11:30:32.796Z,101951.81
2023-02-16T11:33:04.553Z,101945.50
2023-02-16T11:35:41.322Z,101948.84
2023-02-16T11:38:27.169Z,101946.22
2023-02-16T11:40:56.659Z,101948.06
2023-02-16T11:43:29.446Z,101942.31
2023-02-16T11:46:05.211Z,101936.13
2023-02-16T11:48:34.386Z,101940.06
2023-02-16T11:51:04.544Z,101932.66
2023-02-16T11:53:33.988Z,101921.72
2023-02-16T11:56:22.256Z,101922.84
2023-02-16T11:59:13.940Z,101913.38
2023-02-16T12:01:57.193Z,101918.56
2023-02-16T12:04:38.326Z,101923.75
2023-02-16T12:07:16.522Z,101918.97
2023-02-16T12:09:54.811Z,101930.16
2023-02-16T12:12:34.220Z,101925.44
2023-02-16T12:15:07.666Z,101927.59
2023-02-16T12:17:49.702Z,101920.25
2023-02-16T12:20:33.244Z,101911.56
2023-02-16T12:23:15.734Z,101911.69
2023-02-16T12:25:51.832Z,101911.66
2023-02-16T12:28:29.356Z,101915.75
2023-02-16T12:31:06.167Z,101912.19
2023-02-16T12:33:47.980Z,101902.72
2023-02-16T12:36:46.291Z,101908.94
2023-02-16T12:39:21.352Z,101906.47
2023-02-16T12:41:58.515Z,101916.91
2023-02-16T12:44:33.866Z,101905.69
2023-02-16T12:47:04.789Z,101907.00
2023-02-16T12:49:53.068Z,101905.41
2023-02-16T12:52:32.422Z,101911.63
2023-02-16T12:55:19.953Z,101908.44
2023-02-16T12:57:55.665Z,101908.97
2023-02-16T13:00:39.726Z,101903.84
2023-02-16T13:03:21.873Z,101894.34
2023-02-16T13:06:08.179Z,101886.97
2023-02-16T13:08:43.390Z,101879.97
2023-02-16T13:11:18.697Z,101883.34
2023-02-16T13:13:48.962Z,101877.66
2023-02-16T13:16:29.951Z,101880.72
2023-02-16T13:18:58.940Z,101881.69
2023-02-16T13:22:12.875Z,101887.78
2023-02-16T13:24:55.252Z,101881.69
2023-02-16T13:27:33.362Z,101875.66
2023-02-16T13:30:17.073Z,101881.50
2023-02-16T13:33:09.598Z,101864.00
2023-02-16T13:36:07.652Z,101866.63
2023-02-16T13:39:10.458Z,101858.28
2023-02-16T13:42:06.519Z,101869.16
2023-02-16T13:44:38.630Z,101873.81
2023-02-16T13:47:13.669Z,101879.03
2023-02-16T13:49:43.563Z,101867.72
2023-02-16T13:52:12.850Z,101873.19
2023-02-16T13:54:43.752Z,101872.06
2023-02-16T13:57:13.379Z,101871.19
2023-02-16T14:00:05.689Z,101871.97
2023-02-16T14:02:57.107Z,101881.28
2023-02-16T14:05:26.499Z,101870.72
2023-02-16T14:08:27.617Z,101871.47
2023-02-16T14:11:14.514Z,101855.22
2023-02-16T14:13:49.089Z,101858.53
2023-02-16T14:16:35.097Z,101860.59
2023-02-16T14:19:17.706Z,101860.38
2023-02-16T14:21:48.219Z,101862.59
2023-02-16T14:24:31.071Z,101870.84
2023-02-16T14:27:02.849Z,101867.59
2023-02-16T14:29:34.057Z,101873.53
2023-02-16T14:32:07.555Z,101867.72
2023-02-16T14:34:42.485Z,101865.94
2023-02-16T14:37:30.194Z,101865.09
2023-02-16T14:40:08.673Z,101860.84
2023-02-16T14:42:38.069Z,101864.22
2023-02-16T14:45:22.983Z,101861.00
2023-02-16T14:47:59.976Z,101862.78
2023-02-16T14:50:40.689Z,101865.38
2023-02-16T14:53:57.906Z,101861.34
2023-02-16T14:56:38.385Z,101861.13
2023-02-16T14:59:18.144Z,101866.09
2023-02-16T15:01:47.272Z,101863.53
2023-02-16T15:04:29.120Z,101865.41
2023-02-16T15:06:59.866Z,101862.78
2023-02-16T15:09:31.872Z,101867.41
2023-02-16T15:12:21.519Z,101875.50
2023-02-16T15:14:54.540Z,101870.44
2023-02-16T15:17:30.080Z,101867.16
2023-02-16T15:20:04.429Z,101859.25
2023-02-16T15:22:33.475Z,101862.66
2023-02-16T15:25:03.371Z,101867.38
2023-02-16T15:27:32.966Z,101860.78
2023-02-16T15:30:22.534Z,101865.50
2023-02-16T15:32:53.360Z,101869.25
2023-02-16T15:35:27.942Z,101861.66
2023-02-16T15:38:10.998Z,101857.63
2023-02-16T15:40:40.096Z,101862.16
2023-02-16T15:43:23.889Z,101857.69
2023-02-16T15:45:54.805Z,101856.91
2023-02-16T15:48:30.174Z,101845.69
2023-02-16T15:51:03.038Z,101849.75
2023-02-16T15:53:38.319Z,101848.44
2023-02-16T15:56:21.516Z,101842.69
2023-02-16T15:59:05.245Z,101845.22
2023-02-16T16:01:36.676Z,101843.75
2023-02-16T16:04:09.343Z,101836.19
2023-02-16T16:06:40.982Z,101836.00
2023-02-16T16:09:18.727Z,101828.94
2023-02-16T16:11:46.747Z,101829.66
2023-02-16T16:14:15.430Z,101830.75
2023-02-16T16:16:46.493Z,101824.22
2023-02-16T16:19:20.162Z,101832.13
2023-02-16T16:21:51.892Z,101828.41
2023-02-16T16:24:34.119Z,101823.91
2023-02-16T16:27:05.532Z,101828.66
2023-02-16T16:29:38.170Z,101825.44
2023-02-16T16:32:18.308Z,101814.47
2023-02-16T16:34:46.601Z,101820.69
2023-02-16T16:37:27.059Z,101826.84
2023-02-16T16:40:05.404Z,101823.63
2023-02-16T16:42:34.739Z,101810.41
2023-02-16T16:45:07.510Z,101816.22
2023-02-16T16:47:40.070Z,101810.84
2023-02-16T16:50:30.380Z,101804.19
2023-02-16T16:52:58.871Z,101816.00
2023-02-16T16:55:33.246Z,101811.50
2023-02-16T16:58:03.374Z,101809.59
2023-02-16T17:00:35.219Z,101803.75
2023-02-16T17:03:06.258Z,101799.47
2023-02-16T17:05:34.496Z,101802.59
2023-02-16T17:08:02.741Z,101799.50
2023-02-16T17:10:30.726Z,101806.34
2023-02-16T17:13:00.822Z,101801.44
2023-02-16T17:15:34.358Z,101804.44
2023-02-16T17:18:03.984Z,101810.09
2023-02-16T17:20:32.031Z,101808.63
2023-02-16T17:23:04.517Z,101813.03
2023-02-16T17:25:35.003Z,101809.59
2023-02-16T17:28:03.716Z,101816.56
2023-02-16T17:30:31.653Z,101808.28
2023-02-16T17:32:59.598Z,101806.16
2023-02-16T17:35:29.455Z,101810.66
2023-02-16T17:37:57.307Z,101805.63
2023-02-16T17:40:26.233Z,101810.34
2023-02-16T17:42:54.092Z,101811.84
2023-02-16T17:45:23.167Z,101815.38
2023-02-16T17:47:53.580Z,101826.78
2023-02-16T17:50:22.069Z,101820.22
2023-02-16T17:52:57.034Z,101826.47
2023-02-16T17:55:24.971Z,101823.78
2023-02-16T17:57:53.011Z,101828.50
2023-02-16T18:00:22.583Z,101821.59
2023-02-16T18:02:50.476Z,101822.56
2023-02-16T18:05:18.521Z,101823.22
2023-02-16T18:07:46.374Z,101825.38
2023-02-16T18:10:33.068Z,101829.53
2023-02-16T18:13:00.991Z,101821.50
2023-02-16T18:15:29.035Z,101822.25
2023-02-16T18:17:57.170Z,101819.16
2023-02-16T18:20:26.545Z,101820.34
2023-02-16T18:22:54.725Z,101821.38
2023-02-16T18:25:24.360Z,101816.22
2023-02-16T18:27:52.236Z,101826.63
2023-02-16T18:30:20.348Z,101827.06
2023-02-16T18:32:48.243Z,101826.13
2023-02-16T18:35:17.120Z,101826.84
2023-02-16T18:37:45.755Z,101831.69
2023-02-16T18:40:16.687Z,101824.38
2023-02-16T18:42:45.988Z,101819.66
2023-02-16T18:45:13.893Z,101819.59
2023-02-16T18:47:42.612Z,101826.72
2023-02-16T18:50:11.606Z,101804.75
2023-02-16T18:52:42.311Z,101814.06
2023-02-16T18:55:10.806Z,101814.06
2023-02-16T18:57:38.896Z,101819.00
2023-02-16T19:00:09.934Z,101814.69
2023-02-16T19:02:37.988Z,101815.69
2023-02-16T19:05:06.947Z,101818.19
2023-02-16T19:07:35.075Z,101812.03
2023-02-16T19:10:03.278Z,101810.56
2023-02-16T19:12:31.236Z,101802.16
2023-02-16T19:14:59.093Z,101809.03
2023-02-16T19:17:28.287Z,101807.22
2023-02-16T19:19:56.234Z,101812.72
2023-02-16T19:22:24.101Z,101813.97
2023-02-16T19:24:52.162Z,101814.81
2023-02-16T19:27:20.159Z,101818.50
2023-02-16T19:29:48.252Z,101820.06
2023-02-16T19:32:16.130Z,101813.41
2023-02-16T19:34:45.450Z,101822.53
2023-02-16T19:37:13.554Z,101821.28
2023-02-16T19:39:41.470Z,101823.69
2023-02-16T19:42:09.453Z,101817.66
2023-02-16T19:44:37.344Z,101814.53
2023-02-16T19:47:05.295Z,101817.00
2023-02-16T19:49:33.638Z,101812.13
2023-02-16T19:52:04.295Z,101820.00
2023-02-16T19:54:34.900Z,101810.75
2023-02-16T19:57:03.147Z,101809.13
2023-02-16T19:59:31.470Z,101814.50
2023-02-16T20:01:59.537Z,101809.34
2023-02-16T20:04:27.469Z,101799.72
2023-02-16T20:06:56.478Z,101804.94
2023-02-16T20:09:26.111Z,101812.13
2023-02-16T20:11:53.976Z,101812.88
2023-02-16T20:14:21.851Z,101818.47
2023-02-16T20:16:51.750Z,101817.31
2023-02-16T20:19:20.109Z,101818.13
2023-02-16T20:21:48.037Z,101811.31
2023-02-16T20:24:16.341Z,101816.75
2023-02-16T20:26:49.152Z,101805.91
2023-02-16T20:29:17.279Z,101805.34
2023-02-16T20:31:49.961Z,101804.66
2023-02-16T20:34:19.154Z,101793.03
2023-02-16T20:36:47.093Z,101786.91
2023-02-16T20:39:15.273Z,101782.88
2023-02-16T20:41:43.190Z,101784.81
2023-02-16T20:44:12.946Z,101782.44
2023-02-16T20:46:41.836Z,101796.59
2023-02-16T20:49:10.720Z,101797.47
2023-02-16T20:51:39.197Z,101799.50
2023-02-16T20:54:07.179Z,101802.00
2023-02-16T20:56:35.177Z,101799.94
2023-02-16T20:59:03.388Z,101797.69
2023-02-16T21:01:37.089Z,101800.38
2023-02-16T21:04:06.085Z,101787.31
2023-02-16T21:06:34.415Z,101796.38
2023-02-16T21:09:02.352Z,101774.59
2023-02-16T21:11:30.320Z,101785.03
2023-02-16T21:13:58.509Z,101784.97
2023-02-16T21:16:27.047Z,101775.28
2023-02-16T21:18:56.379Z,101777.28
2023-02-16T21:21:25.047Z,101767.50
2023-02-16T21:23:55.200Z,101776.13
2023-02-16T21:26:26.020Z,101764.34
2023-02-16T21:28:54.472Z,101773.84
2023-02-16T21:31:25.115Z,101777.41
2023-02-16T21:33:53.684Z,101780.22
2023-02-16T21:36:25.153Z,101764.66
2023-02-16T21:38:53.503Z,101764.28
2023-02-16T21:41:25.276Z,101764.19
2023-02-16T21:44:00.600Z,101771.06
2023-02-16T21:46:30.801Z,101766.84
2023-02-16T21:48:58.393Z,101760.34
2023-02-16T21:51:29.584Z,101753.81
2023-02-16T21:53:58.816Z,101746.00
2023-02-16T21:56:38.989Z,101741.09
2023-02-16T21:59:09.696Z,101728.66
2023-02-16T22:01:40.400Z,101724.31
2023-02-16T22:04:08.469Z,101728.00
2023-02-16T22:06:40.226Z,101728.69
2023-02-16T22:09:10.511Z,101730.47
2023-02-16T22:11:39.113Z,101729.34
2023-02-16T22:14:07.390Z,101728.34
2023-02-16T22:16:37.203Z,101729.75
2023-02-16T22:19:07.458Z,101720.91
2023-02-16T22:21:38.393Z,101724.91
2023-02-16T22:24:07.368Z,101711.63
2023-02-16T22:26:36.908Z,101714.88
2023-02-16T22:29:06.438Z,101710.25
2023-02-16T22:31:35.261Z,101708.28
2023-02-16T22:34:05.728Z,101703.13
2023-02-16T22:36:34.037Z,101721.94
2023-02-16T22:39:03.249Z,101710.16
2023-02-16T22:41:31.205Z,101723.63
2023-02-16T22:44:00.044Z,101715.81
2023-02-16T22:46:29.622Z,101715.59
2023-02-16T22:48:59.291Z,101720.28
2023-02-16T22:51:29.278Z,101714.88
2023-02-16T22:53:58.671Z,101716.38
2023-02-16T22:56:29.691Z,101714.53
2023-02-16T22:58:58.199Z,101717.22
2023-02-16T23:01:27.415Z,101718.16
2023-02-16T23:03:57.569Z,101714.28
2023-02-16T23:06:27.896Z,101711.13
2023-02-16T23:08:58.011Z,101710.03
2023-02-16T23:11:28.603Z,101700.31
2023-02-16T23:13:56.598Z,101701.41
2023-02-16T23:16:26.896Z,101707.50
2023-02-16T23:18:56.101Z,101698.88
2023-02-16T23:21:25.532Z,101696.31
2023-02-16T23:23:54.674Z,101689.41
2023-02-16T23:26:24.960Z,101697.44
2023-02-16T23:28:56.706Z,101692.69
2023-02-16T23:31:24.848Z,101697.72
2023-02-16T23:33:53.384Z,101695.19
2023-02-16T23:36:21.303Z,101691.34
2023-02-16T23:38:49.198Z,101689.16
2023-02-16T23:41:17.170Z,101685.53
2023-02-16T23:43:45.335Z,101690.00
2023-02-16T23:46:14.673Z,101684.19
2023-02-16T23:48:42.629Z,101691.88
2023-02-16T23:51:12.087Z,101683.28
2023-02-16T23:53:40.287Z,101696.59
2023-02-16T23:56:12.092Z,101697.84
2023-02-16T23:58:42.225Z,101693.81
